Terminal Aerodrome Forecast
Issued by NWS Binghamton, NY

Home | Current Version | Previous Version | Text Only | Print | Product List | Glossary On
Versions: 1 2 3 4 5 6 7 8 9 10 11 12 13 14 15 16 17 18 19
000
FTUS41 KBGM 111138
TAFSYR
TAF
KSYR 111138Z 1112/1212 21005KT P6SM BKN080
     FM111900 15007KT P6SM -SN OVC035
      TEMPO 1120/1124 2SM -SN OVC025
     FM120000 14008KT 1SM -SN OVC015
     FM121000 17009KT 3SM -SN OVC010=

USA.gov is the U.S. government's official web portal to all federal, state and local government web resources and services.